In Rescue
 
Open Full Screen Window  High Contrast Mode
March 04, 2021 3:45 AM CST
Present Weather: Mist
Weather Information
Wind Direction
  ---
Wind Speed
  00 kt (0 mph)
Wind Gust
  00 kt (0 mph)
Altimeter
30.22 in
Visibility
4 SM
Temperature
-04° C
25° F
Dewpoint
-05° C
23° F
Humidity
93%
1hr Rain Fall
00.00 in.
24hr Rain Fall
00.00 in.
Sky Condition
Scattered @ 5,000 ft
MVFR

METAR KSYN 040945Z AUTO 00000KT 4SM BR SCT050 M04/M05 A3022 RMK AO2 T10431051

FAA Disclaimer: The data displayed is for advisory purposes only and is not to be used for flight planning or operations.